sensor_id;sensor_type;location;lat;lon;timestamp;temperature;humidity
11840;DHT22;5979;50.800;4.904;2024-02-23T00:00:48;6.40;99.90
11840;DHT22;5979;50.800;4.904;2024-02-23T00:03:14;6.40;99.90
11840;DHT22;5979;50.800;4.904;2024-02-23T00:05:39;6.40;99.90
11840;DHT22;5979;50.800;4.904;2024-02-23T00:08:06;6.40;99.90
11840;DHT22;5979;50.800;4.904;2024-02-23T00:10:32;6.30;99.90
11840;DHT22;5979;50.800;4.904;2024-02-23T00:12:58;6.40;99.90
11840;DHT22;5979;50.800;4.904;2024-02-23T00:15:23;6.40;99.90
11840;DHT22;5979;50.800;4.904;2024-02-23T00:17:50;6.30;99.90
11840;DHT22;5979;50.800;4.904;2024-02-23T00:20:16;6.30;99.90
11840;DHT22;5979;50.800;4.904;2024-02-23T00:22:42;6.30;99.90
11840;DHT22;5979;50.800;4.904;2024-02-23T00:25:07;6.30;99.90
11840;DHT22;5979;50.800;4.904;2024-02-23T00:27:33;6.30;99.90
11840;DHT22;5979;50.800;4.904;2024-02-23T00:29:59;6.20;99.90
11840;DHT22;5979;50.800;4.904;2024-02-23T00:32:25;6.20;99.90
11840;DHT22;5979;50.800;4.904;2024-02-23T00:34:51;6.10;99.90
11840;DHT22;5979;50.800;4.904;2024-02-23T00:37:16;6.20;99.90
11840;DHT22;5979;50.800;4.904;2024-02-23T00:39:42;6.10;99.90
11840;DHT22;5979;50.800;4.904;2024-02-23T00:42:08;6.10;99.90
11840;DHT22;5979;50.800;4.904;2024-02-23T00:44:33;6.10;99.90
11840;DHT22;5979;50.800;4.904;2024-02-23T00:46:59;6.10;99.90
11840;DHT22;5979;50.800;4.904;2024-02-23T00:49:27;6.10;99.90
11840;DHT22;5979;50.800;4.904;2024-02-23T00:51:53;6.10;99.90
11840;DHT22;5979;50.800;4.904;2024-02-23T00:54:19;6.10;99.90
11840;DHT22;5979;50.800;4.904;2024-02-23T00:56:45;6.00;99.90
11840;DHT22;5979;50.800;4.904;2024-02-23T00:59:12;6.00;99.90
11840;DHT22;5979;50.800;4.904;2024-02-23T01:01:37;6.00;99.90
11840;DHT22;5979;50.800;4.904;2024-02-23T01:04:03;5.90;99.90
11840;DHT22;5979;50.800;4.904;2024-02-23T01:06:29;6.00;99.90
11840;DHT22;5979;50.800;4.904;2024-02-23T01:08:55;6.00;99.90
11840;DHT22;5979;50.800;4.904;2024-02-23T01:11:20;6.00;99.90
11840;DHT22;5979;50.800;4.904;2024-02-23T01:13:46;6.00;99.90
11840;DHT22;5979;50.800;4.904;2024-02-23T01:16:11;6.00;99.90
11840;DHT22;5979;50.800;4.904;2024-02-23T01:18:37;5.90;99.90
11840;DHT22;5979;50.800;4.904;2024-02-23T01:21:03;5.90;99.90
11840;DHT22;5979;50.800;4.904;2024-02-23T01:23:28;5.90;99.90
11840;DHT22;5979;50.800;4.904;2024-02-23T01:25:54;6.00;99.90
11840;DHT22;5979;50.800;4.904;2024-02-23T01:28:20;6.00;99.90
11840;DHT22;5979;50.800;4.904;2024-02-23T01:50:58;6.10;99.90
11840;DHT22;5979;50.800;4.904;2024-02-23T01:53:24;6.10;99.90
11840;DHT22;5979;50.800;4.904;2024-02-23T01:55:51;6.20;99.90
11840;DHT22;5979;50.800;4.904;2024-02-23T01:58:19;6.20;99.90
11840;DHT22;5979;50.800;4.904;2024-02-23T02:00:45;6.20;99.90
11840;DHT22;5979;50.800;4.904;2024-02-23T02:03:10;6.20;99.90
11840;DHT22;5979;50.800;4.904;2024-02-23T02:05:37;6.20;99.90
11840;DHT22;5979;50.800;4.904;2024-02-23T02:08:03;6.20;99.90
11840;DHT22;5979;50.800;4.904;2024-02-23T02:10:29;6.20;99.90
11840;DHT22;5979;50.800;4.904;2024-02-23T02:12:55;6.20;99.90
11840;DHT22;5979;50.800;4.904;2024-02-23T02:15:20;6.10;99.90
11840;DHT22;5979;50.800;4.904;2024-02-23T02:17:48;6.10;99.90
11840;DHT22;5979;50.800;4.904;2024-02-23T02:20:13;6.10;99.90
11840;DHT22;5979;50.800;4.904;2024-02-23T02:22:39;6.00;99.90
11840;DHT22;5979;50.800;4.904;2024-02-23T02:25:06;6.00;99.90
11840;DHT22;5979;50.800;4.904;2024-02-23T02:27:32;6.00;99.90
11840;DHT22;5979;50.800;4.904;2024-02-23T02:29:58;6.00;99.90
11840;DHT22;5979;50.800;4.904;2024-02-23T02:32:23;6.00;99.90
11840;DHT22;5979;50.800;4.904;2024-02-23T02:34:49;6.00;99.90
11840;DHT22;5979;50.800;4.904;2024-02-23T02:37:15;6.00;99.90
11840;DHT22;5979;50.800;4.904;2024-02-23T02:39:41;6.00;99.90
11840;DHT22;5979;50.800;4.904;2024-02-23T02:42:07;6.00;99.90
11840;DHT22;5979;50.800;4.904;2024-02-23T02:44:32;6.10;99.90
11840;DHT22;5979;50.800;4.904;2024-02-23T02:46:58;6.10;99.90
11840;DHT22;5979;50.800;4.904;2024-02-23T02:49:24;6.10;99.90
11840;DHT22;5979;50.800;4.904;2024-02-23T02:51:50;6.10;99.90
11840;DHT22;5979;50.800;4.904;2024-02-23T02:54:16;6.10;99.90
11840;DHT22;5979;50.800;4.904;2024-02-23T02:56:42;6.10;99.90
11840;DHT22;5979;50.800;4.904;2024-02-23T02:59:09;6.10;99.90
11840;DHT22;5979;50.800;4.904;2024-02-23T03:01:35;6.10;99.90
11840;DHT22;5979;50.800;4.904;2024-02-23T03:04:01;6.10;99.90
11840;DHT22;5979;50.800;4.904;2024-02-23T03:06:26;6.10;99.90
11840;DHT22;5979;50.800;4.904;2024-02-23T03:08:52;6.10;99.90
11840;DHT22;5979;50.800;4.904;2024-02-23T03:11:17;6.10;99.90
11840;DHT22;5979;50.800;4.904;2024-02-23T03:13:43;6.10;99.90
11840;DHT22;5979;50.800;4.904;2024-02-23T03:16:16;6.10;99.90
11840;DHT22;5979;50.800;4.904;2024-02-23T03:18:42;6.10;99.90
11840;DHT22;5979;50.800;4.904;2024-02-23T03:21:07;6.10;99.90
11840;DHT22;5979;50.800;4.904;2024-02-23T03:23:37;6.10;99.90
11840;DHT22;5979;50.800;4.904;2024-02-23T03:26:03;6.10;99.90
11840;DHT22;5979;50.800;4.904;2024-02-23T03:28:29;6.00;99.90
11840;DHT22;5979;50.800;4.904;2024-02-23T03:30:54;6.00;99.90
11840;DHT22;5979;50.800;4.904;2024-02-23T03:33:20;6.00;99.90
11840;DHT22;5979;50.800;4.904;2024-02-23T03:35:45;6.00;99.90
11840;DHT22;5979;50.800;4.904;2024-02-23T03:38:11;6.00;99.90
11840;DHT22;5979;50.800;4.904;2024-02-23T03:40:37;6.00;99.90
11840;DHT22;5979;50.800;4.904;2024-02-23T03:43:04;6.00;99.90
11840;DHT22;5979;50.800;4.904;2024-02-23T03:45:29;6.10;99.90
11840;DHT22;5979;50.800;4.904;2024-02-23T03:47:55;6.10;99.90
11840;DHT22;5979;50.800;4.904;2024-02-23T03:50:21;6.10;99.90
11840;DHT22;5979;50.800;4.904;2024-02-23T03:52:46;6.00;99.90
11840;DHT22;5979;50.800;4.904;2024-02-23T03:55:12;6.10;99.90
11840;DHT22;5979;50.800;4.904;2024-02-23T03:57:37;6.00;99.90
11840;DHT22;5979;50.800;4.904;2024-02-23T04:00:03;6.00;99.90
11840;DHT22;5979;50.800;4.904;2024-02-23T04:02:29;6.10;99.90
11840;DHT22;5979;50.800;4.904;2024-02-23T04:04:55;6.10;99.90
11840;DHT22;5979;50.800;4.904;2024-02-23T04:07:20;6.10;99.90
11840;DHT22;5979;50.800;4.904;2024-02-23T04:09:47;6.00;99.90
11840;DHT22;5979;50.800;4.904;2024-02-23T04:12:18;6.00;99.90
11840;DHT22;5979;50.800;4.904;2024-02-23T04:14:44;6.00;99.90
11840;DHT22;5979;50.800;4.904;2024-02-23T04:17:11;6.00;99.90
11840;DHT22;5979;50.800;4.904;2024-02-23T04:19:43;6.00;99.90
11840;DHT22;5979;50.800;4.904;2024-02-23T04:22:09;6.00;99.90
11840;DHT22;5979;50.800;4.904;2024-02-23T04:24:39;6.00;99.90
11840;DHT22;5979;50.800;4.904;2024-02-23T04:27:06;6.00;99.90
11840;DHT22;5979;50.800;4.904;2024-02-23T04:29:32;5.90;99.90
11840;DHT22;5979;50.800;4.904;2024-02-23T04:31:59;5.90;99.90
11840;DHT22;5979;50.800;4.904;2024-02-23T04:34:24;5.90;99.90
11840;DHT22;5979;50.800;4.904;2024-02-23T04:36:50;6.00;99.90
11840;DHT22;5979;50.800;4.904;2024-02-23T04:39:16;6.00;99.90
11840;DHT22;5979;50.800;4.904;2024-02-23T04:41:41;6.00;99.90
11840;DHT22;5979;50.800;4.904;2024-02-23T04:44:07;6.00;99.90
11840;DHT22;5979;50.800;4.904;2024-02-23T04:46:33;6.10;99.90
11840;DHT22;5979;50.800;4.904;2024-02-23T04:49:00;6.10;99.90
11840;DHT22;5979;50.800;4.904;2024-02-23T04:51:26;6.10;99.90
11840;DHT22;5979;50.800;4.904;2024-02-23T04:53:51;6.10;99.90
11840;DHT22;5979;50.800;4.904;2024-02-23T04:56:17;6.20;99.90
11840;DHT22;5979;50.800;4.904;2024-02-23T04:58:43;6.10;99.90
11840;DHT22;5979;50.800;4.904;2024-02-23T05:01:09;6.20;99.90
11840;DHT22;5979;50.800;4.904;2024-02-23T05:03:36;6.20;99.90
11840;DHT22;5979;50.800;4.904;2024-02-23T05:06:03;6.20;99.90
11840;DHT22;5979;50.800;4.904;2024-02-23T05:08:28;6.20;99.90
11840;DHT22;5979;50.800;4.904;2024-02-23T05:10:58;6.20;99.90
11840;DHT22;5979;50.800;4.904;2024-02-23T05:13:24;6.20;99.90
11840;DHT22;5979;50.800;4.904;2024-02-23T05:15:50;6.20;99.90
11840;DHT22;5979;50.800;4.904;2024-02-23T05:18:16;6.20;99.90
11840;DHT22;5979;50.800;4.904;2024-02-23T05:20:41;6.20;99.90
11840;DHT22;5979;50.800;4.904;2024-02-23T05:23:07;6.20;99.90
11840;DHT22;5979;50.800;4.904;2024-02-23T05:25:33;6.20;99.90
11840;DHT22;5979;50.800;4.904;2024-02-23T05:27:59;6.20;99.90
11840;DHT22;5979;50.800;4.904;2024-02-23T05:30:24;6.30;99.90
11840;DHT22;5979;50.800;4.904;2024-02-23T05:32:52;6.20;99.90
11840;DHT22;5979;50.800;4.904;2024-02-23T05:35:18;6.20;99.90
11840;DHT22;5979;50.800;4.904;2024-02-23T05:37:44;6.20;99.90
11840;DHT22;5979;50.800;4.904;2024-02-23T05:40:10;6.30;99.90
11840;DHT22;5979;50.800;4.904;2024-02-23T05:42:39;6.20;99.90
11840;DHT22;5979;50.800;4.904;2024-02-23T05:45:06;6.20;99.90
11840;DHT22;5979;50.800;4.904;2024-02-23T05:47:43;6.20;99.90
11840;DHT22;5979;50.800;4.904;2024-02-23T05:50:09;6.20;99.90
11840;DHT22;5979;50.800;4.904;2024-02-23T05:52:35;6.30;99.90
11840;DHT22;5979;50.800;4.904;2024-02-23T05:55:02;6.20;99.90
11840;DHT22;5979;50.800;4.904;2024-02-23T05:57:29;6.20;99.90
11840;DHT22;5979;50.800;4.904;2024-02-23T05:59:55;6.20;99.90
11840;DHT22;5979;50.800;4.904;2024-02-23T06:02:24;6.30;99.90
11840;DHT22;5979;50.800;4.904;2024-02-23T06:04:50;6.30;99.90
11840;DHT22;5979;50.800;4.904;2024-02-23T06:07:15;6.30;99.90
11840;DHT22;5979;50.800;4.904;2024-02-23T06:09:42;6.30;99.90
11840;DHT22;5979;50.800;4.904;2024-02-23T06:12:08;6.20;99.90
11840;DHT22;5979;50.800;4.904;2024-02-23T06:14:34;6.30;99.90
11840;DHT22;5979;50.800;4.904;2024-02-23T06:17:00;6.20;99.90
11840;DHT22;5979;50.800;4.904;2024-02-23T06:19:26;6.20;99.90
11840;DHT22;5979;50.800;4.904;2024-02-23T06:21:51;6.20;99.90
11840;DHT22;5979;50.800;4.904;2024-02-23T06:24:17;6.20;99.90
11840;DHT22;5979;50.800;4.904;2024-02-23T06:26:43;6.20;99.90
11840;DHT22;5979;50.800;4.904;2024-02-23T06:29:09;6.20;99.90
11840;DHT22;5979;50.800;4.904;2024-02-23T06:31:38;6.30;99.90
11840;DHT22;5979;50.800;4.904;2024-02-23T06:34:05;6.20;99.90
11840;DHT22;5979;50.800;4.904;2024-02-23T06:36:31;6.20;99.90
11840;DHT22;5979;50.800;4.904;2024-02-23T06:38:56;6.30;99.90
11840;DHT22;5979;50.800;4.904;2024-02-23T06:41:22;6.30;99.90
11840;DHT22;5979;50.800;4.904;2024-02-23T06:43:48;6.30;99.90
11840;DHT22;5979;50.800;4.904;2024-02-23T06:46:13;6.30;99.90
11840;DHT22;5979;50.800;4.904;2024-02-23T06:48:39;6.20;99.90
11840;DHT22;5979;50.800;4.904;2024-02-23T06:51:05;6.30;99.90
11840;DHT22;5979;50.800;4.904;2024-02-23T06:53:34;6.30;99.90
11840;DHT22;5979;50.800;4.904;2024-02-23T06:56:00;6.30;99.90
11840;DHT22;5979;50.800;4.904;2024-02-23T06:58:27;6.30;99.90
11840;DHT22;5979;50.800;4.904;2024-02-23T07:00:52;6.30;99.90
11840;DHT22;5979;50.800;4.904;2024-02-23T07:03:18;6.30;99.90
11840;DHT22;5979;50.800;4.904;2024-02-23T07:05:43;6.30;99.90
11840;DHT22;5979;50.800;4.904;2024-02-23T07:08:10;6.40;99.90
11840;DHT22;5979;50.800;4.904;2024-02-23T07:10:36;6.40;99.90
11840;DHT22;5979;50.800;4.904;2024-02-23T07:13:02;6.40;99.90
11840;DHT22;5979;50.800;4.904;2024-02-23T07:15:28;6.40;99.90
11840;DHT22;5979;50.800;4.904;2024-02-23T07:17:55;6.50;99.90
11840;DHT22;5979;50.800;4.904;2024-02-23T07:20:21;6.60;99.90
11840;DHT22;5979;50.800;4.904;2024-02-23T07:22:47;6.60;99.90
11840;DHT22;5979;50.800;4.904;2024-02-23T07:25:19;6.60;99.90
11840;DHT22;5979;50.800;4.904;2024-02-23T07:27:48;6.70;99.90
11840;DHT22;5979;50.800;4.904;2024-02-23T07:30:16;6.60;99.90
11840;DHT22;5979;50.800;4.904;2024-02-23T07:32:43;6.60;99.90
11840;DHT22;5979;50.800;4.904;2024-02-23T07:35:10;6.60;99.90
11840;DHT22;5979;50.800;4.904;2024-02-23T07:37:36;6.60;99.90
11840;DHT22;5979;50.800;4.904;2024-02-23T07:40:03;6.70;99.90
11840;DHT22;5979;50.800;4.904;2024-02-23T07:42:29;6.60;99.90
11840;DHT22;5979;50.800;4.904;2024-02-23T07:44:55;6.60;99.90
11840;DHT22;5979;50.800;4.904;2024-02-23T07:47:21;6.60;99.90
11840;DHT22;5979;50.800;4.904;2024-02-23T07:49:47;6.70;99.90
11840;DHT22;5979;50.800;4.904;2024-02-23T07:52:13;6.70;99.90
11840;DHT22;5979;50.800;4.904;2024-02-23T07:54:38;6.70;99.90
11840;DHT22;5979;50.800;4.904;2024-02-23T07:57:04;6.70;99.90
11840;DHT22;5979;50.800;4.904;2024-02-23T07:59:30;6.70;99.90
11840;DHT22;5979;50.800;4.904;2024-02-23T08:01:56;6.80;99.90
11840;DHT22;5979;50.800;4.904;2024-02-23T08:04:22;6.80;99.90
11840;DHT22;5979;50.800;4.904;2024-02-23T08:06:48;6.90;99.90
11840;DHT22;5979;50.800;4.904;2024-02-23T08:09:14;6.90;99.90
11840;DHT22;5979;50.800;4.904;2024-02-23T08:11:40;6.90;99.90
11840;DHT22;5979;50.800;4.904;2024-02-23T08:14:05;7.00;99.90
11840;DHT22;5979;50.800;4.904;2024-02-23T08:16:31;7.10;99.90
11840;DHT22;5979;50.800;4.904;2024-02-23T08:18:57;7.20;99.90
11840;DHT22;5979;50.800;4.904;2024-02-23T08:21:23;7.30;99.90
11840;DHT22;5979;50.800;4.904;2024-02-23T08:23:49;7.30;99.90
11840;DHT22;5979;50.800;4.904;2024-02-23T08:26:14;7.30;99.90
11840;DHT22;5979;50.800;4.904;2024-02-23T08:28:40;7.40;99.90
11840;DHT22;5979;50.800;4.904;2024-02-23T08:31:06;7.30;99.90
11840;DHT22;5979;50.800;4.904;2024-02-23T08:33:31;7.30;99.90
11840;DHT22;5979;50.800;4.904;2024-02-23T08:35:57;7.40;99.90
11840;DHT22;5979;50.800;4.904;2024-02-23T08:38:23;7.40;99.90
11840;DHT22;5979;50.800;4.904;2024-02-23T08:40:48;7.40;99.90
11840;DHT22;5979;50.800;4.904;2024-02-23T08:43:14;7.30;99.90
11840;DHT22;5979;50.800;4.904;2024-02-23T08:45:40;7.30;99.90
11840;DHT22;5979;50.800;4.904;2024-02-23T08:48:06;7.30;99.90
11840;DHT22;5979;50.800;4.904;2024-02-23T08:50:32;7.20;99.90
11840;DHT22;5979;50.800;4.904;2024-02-23T08:52:58;7.20;99.90
11840;DHT22;5979;50.800;4.904;2024-02-23T08:55:24;7.20;99.90
11840;DHT22;5979;50.800;4.904;2024-02-23T08:57:50;7.20;99.90
11840;DHT22;5979;50.800;4.904;2024-02-23T09:00:16;7.20;99.90
11840;DHT22;5979;50.800;4.904;2024-02-23T09:02:41;7.20;99.90
11840;DHT22;5979;50.800;4.904;2024-02-23T09:05:11;7.00;99.90
11840;DHT22;5979;50.800;4.904;2024-02-23T09:07:36;7.00;99.90
11840;DHT22;5979;50.800;4.904;2024-02-23T09:10:02;7.00;99.90
11840;DHT22;5979;50.800;4.904;2024-02-23T09:12:30;7.00;99.90
11840;DHT22;5979;50.800;4.904;2024-02-23T09:14:56;7.10;99.90
11840;DHT22;5979;50.800;4.904;2024-02-23T09:17:21;7.10;99.90
11840;DHT22;5979;50.800;4.904;2024-02-23T09:19:47;7.30;99.90
11840;DHT22;5979;50.800;4.904;2024-02-23T09:22:13;7.50;99.90
11840;DHT22;5979;50.800;4.904;2024-02-23T09:24:39;7.60;99.90
11840;DHT22;5979;50.800;4.904;2024-02-23T09:27:06;7.60;99.90
11840;DHT22;5979;50.800;4.904;2024-02-23T09:29:32;7.60;99.90
11840;DHT22;5979;50.800;4.904;2024-02-23T09:31:58;7.60;99.90
11840;DHT22;5979;50.800;4.904;2024-02-23T09:34:24;7.50;99.90
11840;DHT22;5979;50.800;4.904;2024-02-23T09:36:50;7.50;99.90
11840;DHT22;5979;50.800;4.904;2024-02-23T09:39:16;7.50;99.90
11840;DHT22;5979;50.800;4.904;2024-02-23T09:41:42;7.50;99.90
11840;DHT22;5979;50.800;4.904;2024-02-23T09:44:09;7.40;99.90
11840;DHT22;5979;50.800;4.904;2024-02-23T09:46:40;7.30;99.90
11840;DHT22;5979;50.800;4.904;2024-02-23T09:49:11;7.30;99.90
11840;DHT22;5979;50.800;4.904;2024-02-23T09:51:39;7.30;99.90
11840;DHT22;5979;50.800;4.904;2024-02-23T09:54:05;7.30;99.90
11840;DHT22;5979;50.800;4.904;2024-02-23T09:56:30;7.30;99.90
11840;DHT22;5979;50.800;4.904;2024-02-23T09:59:00;7.30;99.90
11840;DHT22;5979;50.800;4.904;2024-02-23T10:01:31;7.30;99.90
11840;DHT22;5979;50.800;4.904;2024-02-23T10:03:59;7.30;99.90
11840;DHT22;5979;50.800;4.904;2024-02-23T10:06:25;7.30;99.90
11840;DHT22;5979;50.800;4.904;2024-02-23T10:08:51;7.30;99.90
11840;DHT22;5979;50.800;4.904;2024-02-23T10:11:20;7.40;99.90
11840;DHT22;5979;50.800;4.904;2024-02-23T10:13:47;7.50;99.90
11840;DHT22;5979;50.800;4.904;2024-02-23T10:16:18;7.60;99.90
11840;DHT22;5979;50.800;4.904;2024-02-23T10:18:48;7.80;99.90
11840;DHT22;5979;50.800;4.904;2024-02-23T10:21:17;8.00;99.90
11840;DHT22;5979;50.800;4.904;2024-02-23T10:23:47;8.00;99.90
11840;DHT22;5979;50.800;4.904;2024-02-23T10:26:13;8.10;99.90
11840;DHT22;5979;50.800;4.904;2024-02-23T10:28:45;8.00;99.90
11840;DHT22;5979;50.800;4.904;2024-02-23T10:31:11;8.10;99.90
11840;DHT22;5979;50.800;4.904;2024-02-23T10:33:38;8.20;99.90
11840;DHT22;5979;50.800;4.904;2024-02-23T10:36:05;8.30;99.90
11840;DHT22;5979;50.800;4.904;2024-02-23T10:38:35;8.40;99.90
11840;DHT22;5979;50.800;4.904;2024-02-23T10:41:05;8.30;99.90
11840;DHT22;5979;50.800;4.904;2024-02-23T10:43:46;8.20;99.90
11840;DHT22;5979;50.800;4.904;2024-02-23T10:46:12;8.30;99.90
11840;DHT22;5979;50.800;4.904;2024-02-23T10:48:42;8.40;99.90
11840;DHT22;5979;50.800;4.904;2024-02-23T10:51:10;8.70;99.90
11840;DHT22;5979;50.800;4.904;2024-02-23T10:53:39;8.80;99.90
11840;DHT22;5979;50.800;4.904;2024-02-23T10:56:06;8.90;99.90
11840;DHT22;5979;50.800;4.904;2024-02-23T10:58:33;8.90;99.90
11840;DHT22;5979;50.800;4.904;2024-02-23T11:01:04;8.90;99.90
11840;DHT22;5979;50.800;4.904;2024-02-23T11:03:32;8.90;99.90
11840;DHT22;5979;50.800;4.904;2024-02-23T11:05:59;8.90;99.90
11840;DHT22;5979;50.800;4.904;2024-02-23T11:08:37;8.90;99.90
11840;DHT22;5979;50.800;4.904;2024-02-23T11:11:09;9.00;99.90
11840;DHT22;5979;50.800;4.904;2024-02-23T11:13:36;9.10;99.90
11840;DHT22;5979;50.800;4.904;2024-02-23T11:16:06;9.10;99.90
11840;DHT22;5979;50.800;4.904;2024-02-23T11:18:36;9.10;99.90
11840;DHT22;5979;50.800;4.904;2024-02-23T11:21:04;9.00;99.90
11840;DHT22;5979;50.800;4.904;2024-02-23T11:23:48;9.10;99.90
11840;DHT22;5979;50.800;4.904;2024-02-23T11:26:15;9.20;99.90
11840;DHT22;5979;50.800;4.904;2024-02-23T11:31:14;9.40;99.90
11840;DHT22;5979;50.800;4.904;2024-02-23T11:33:39;9.50;99.90
11840;DHT22;5979;50.800;4.904;2024-02-23T11:36:09;9.40;99.90
11840;DHT22;5979;50.800;4.904;2024-02-23T11:38:35;9.40;99.90
11840;DHT22;5979;50.800;4.904;2024-02-23T11:41:02;9.50;99.90
11840;DHT22;5979;50.800;4.904;2024-02-23T11:43:28;9.50;99.90
11840;DHT22;5979;50.800;4.904;2024-02-23T11:45:54;9.60;99.90
11840;DHT22;5979;50.800;4.904;2024-02-23T11:48:20;9.60;99.90
11840;DHT22;5979;50.800;4.904;2024-02-23T11:50:48;9.60;99.90
11840;DHT22;5979;50.800;4.904;2024-02-23T11:53:14;9.60;99.90
11840;DHT22;5979;50.800;4.904;2024-02-23T11:55:40;9.60;99.90
11840;DHT22;5979;50.800;4.904;2024-02-23T11:58:06;9.60;99.90
11840;DHT22;5979;50.800;4.904;2024-02-23T12:00:32;9.60;99.90
11840;DHT22;5979;50.800;4.904;2024-02-23T12:02:58;9.60;99.90
11840;DHT22;5979;50.800;4.904;2024-02-23T12:05:24;9.60;99.90
11840;DHT22;5979;50.800;4.904;2024-02-23T12:07:50;9.60;99.90
11840;DHT22;5979;50.800;4.904;2024-02-23T12:10:16;9.60;99.90
11840;DHT22;5979;50.800;4.904;2024-02-23T12:12:42;9.70;99.90
11840;DHT22;5979;50.800;4.904;2024-02-23T12:15:08;9.60;99.90
11840;DHT22;5979;50.800;4.904;2024-02-23T12:17:36;9.60;99.90
11840;DHT22;5979;50.800;4.904;2024-02-23T12:20:03;9.60;99.90
11840;DHT22;5979;50.800;4.904;2024-02-23T12:22:29;9.50;99.90
11840;DHT22;5979;50.800;4.904;2024-02-23T12:24:59;9.50;99.90
11840;DHT22;5979;50.800;4.904;2024-02-23T12:27:26;9.50;99.90
11840;DHT22;5979;50.800;4.904;2024-02-23T12:29:58;9.60;99.90
11840;DHT22;5979;50.800;4.904;2024-02-23T12:32:25;9.60;99.90
11840;DHT22;5979;50.800;4.904;2024-02-23T12:34:52;9.70;99.90
11840;DHT22;5979;50.800;4.904;2024-02-23T12:37:18;9.90;99.90
11840;DHT22;5979;50.800;4.904;2024-02-23T12:39:44;10.00;99.90
11840;DHT22;5979;50.800;4.904;2024-02-23T12:42:10;10.00;99.90
11840;DHT22;5979;50.800;4.904;2024-02-23T12:44:35;10.10;99.90
11840;DHT22;5979;50.800;4.904;2024-02-23T12:47:01;10.10;99.90
11840;DHT22;5979;50.800;4.904;2024-02-23T12:49:27;10.20;99.90
11840;DHT22;5979;50.800;4.904;2024-02-23T12:51:53;10.20;99.90
11840;DHT22;5979;50.800;4.904;2024-02-23T12:54:18;10.10;99.90
11840;DHT22;5979;50.800;4.904;2024-02-23T12:56:44;10.20;99.90
11840;DHT22;5979;50.800;4.904;2024-02-23T12:59:09;10.20;99.90
11840;DHT22;5979;50.800;4.904;2024-02-23T13:01:36;10.10;99.90
11840;DHT22;5979;50.800;4.904;2024-02-23T13:04:04;10.00;99.90
11840;DHT22;5979;50.800;4.904;2024-02-23T13:06:38;9.90;99.90
11840;DHT22;5979;50.800;4.904;2024-02-23T13:09:05;9.80;99.90
11840;DHT22;5979;50.800;4.904;2024-02-23T13:11:34;9.80;99.90
11840;DHT22;5979;50.800;4.904;2024-02-23T13:14:00;9.70;99.90
11840;DHT22;5979;50.800;4.904;2024-02-23T13:16:25;9.70;99.90
11840;DHT22;5979;50.800;4.904;2024-02-23T13:18:51;9.70;99.90
11840;DHT22;5979;50.800;4.904;2024-02-23T13:21:18;9.70;99.90
11840;DHT22;5979;50.800;4.904;2024-02-23T13:23:43;9.80;99.90
11840;DHT22;5979;50.800;4.904;2024-02-23T13:26:09;9.80;99.90
11840;DHT22;5979;50.800;4.904;2024-02-23T13:28:36;9.90;99.90
11840;DHT22;5979;50.800;4.904;2024-02-23T13:31:02;10.00;99.90
11840;DHT22;5979;50.800;4.904;2024-02-23T13:33:28;9.90;99.90
11840;DHT22;5979;50.800;4.904;2024-02-23T13:35:54;9.90;99.90
11840;DHT22;5979;50.800;4.904;2024-02-23T13:38:20;9.90;99.90
11840;DHT22;5979;50.800;4.904;2024-02-23T13:40:46;9.90;99.90
11840;DHT22;5979;50.800;4.904;2024-02-23T13:43:12;9.80;99.90
11840;DHT22;5979;50.800;4.904;2024-02-23T13:45:52;9.70;99.90
11840;DHT22;5979;50.800;4.904;2024-02-23T13:48:19;9.80;99.90
11840;DHT22;5979;50.800;4.904;2024-02-23T13:50:46;9.70;99.90
11840;DHT22;5979;50.800;4.904;2024-02-23T13:53:12;9.70;99.90
11840;DHT22;5979;50.800;4.904;2024-02-23T13:55:39;9.70;99.90
11840;DHT22;5979;50.800;4.904;2024-02-23T13:58:04;9.60;99.90
11840;DHT22;5979;50.800;4.904;2024-02-23T14:00:30;9.60;99.90
11840;DHT22;5979;50.800;4.904;2024-02-23T14:02:56;9.60;99.90
11840;DHT22;5979;50.800;4.904;2024-02-23T14:05:21;9.60;99.90
11840;DHT22;5979;50.800;4.904;2024-02-23T14:07:50;9.60;99.90
11840;DHT22;5979;50.800;4.904;2024-02-23T14:10:16;9.60;99.90
11840;DHT22;5979;50.800;4.904;2024-02-23T14:12:42;9.60;99.90
11840;DHT22;5979;50.800;4.904;2024-02-23T14:15:09;9.60;99.90
11840;DHT22;5979;50.800;4.904;2024-02-23T14:17:35;9.60;99.90
11840;DHT22;5979;50.800;4.904;2024-02-23T14:20:01;9.70;99.90
11840;DHT22;5979;50.800;4.904;2024-02-23T14:22:28;9.70;99.90
11840;DHT22;5979;50.800;4.904;2024-02-23T14:24:54;9.70;99.90
11840;DHT22;5979;50.800;4.904;2024-02-23T14:27:19;9.60;99.90
11840;DHT22;5979;50.800;4.904;2024-02-23T14:29:46;9.50;99.90
11840;DHT22;5979;50.800;4.904;2024-02-23T14:32:16;9.50;99.90
11840;DHT22;5979;50.800;4.904;2024-02-23T14:34:43;9.70;99.90
11840;DHT22;5979;50.800;4.904;2024-02-23T14:37:08;9.80;99.90
11840;DHT22;5979;50.800;4.904;2024-02-23T14:39:34;9.90;99.90
11840;DHT22;5979;50.800;4.904;2024-02-23T14:42:03;9.90;99.90
11840;DHT22;5979;50.800;4.904;2024-02-23T14:44:29;9.80;99.90
11840;DHT22;5979;50.800;4.904;2024-02-23T14:46:55;9.70;99.90
11840;DHT22;5979;50.800;4.904;2024-02-23T14:49:20;9.60;99.90
11840;DHT22;5979;50.800;4.904;2024-02-23T14:51:46;9.50;99.90
11840;DHT22;5979;50.800;4.904;2024-02-23T14:54:14;9.50;99.90
11840;DHT22;5979;50.800;4.904;2024-02-23T14:56:39;9.50;99.90
11840;DHT22;5979;50.800;4.904;2024-02-23T14:59:07;9.40;99.90
11840;DHT22;5979;50.800;4.904;2024-02-23T15:01:37;9.40;99.90
11840;DHT22;5979;50.800;4.904;2024-02-23T15:04:03;9.40;99.90
11840;DHT22;5979;50.800;4.904;2024-02-23T15:06:29;9.30;99.90
11840;DHT22;5979;50.800;4.904;2024-02-23T15:08:55;9.30;99.90
11840;DHT22;5979;50.800;4.904;2024-02-23T15:11:20;9.30;99.90
11840;DHT22;5979;50.800;4.904;2024-02-23T15:13:47;9.30;99.90
11840;DHT22;5979;50.800;4.904;2024-02-23T15:16:12;9.40;99.90
11840;DHT22;5979;50.800;4.904;2024-02-23T15:18:38;9.40;99.90
11840;DHT22;5979;50.800;4.904;2024-02-23T15:21:04;9.40;99.90
11840;DHT22;5979;50.800;4.904;2024-02-23T15:23:30;9.40;99.90
11840;DHT22;5979;50.800;4.904;2024-02-23T15:25:55;9.40;99.90
11840;DHT22;5979;50.800;4.904;2024-02-23T15:28:21;9.40;99.90
11840;DHT22;5979;50.800;4.904;2024-02-23T15:30:51;9.40;99.90
11840;DHT22;5979;50.800;4.904;2024-02-23T15:33:18;9.40;99.90
11840;DHT22;5979;50.800;4.904;2024-02-23T15:35:43;9.40;99.90
11840;DHT22;5979;50.800;4.904;2024-02-23T15:38:09;9.50;99.90
11840;DHT22;5979;50.800;4.904;2024-02-23T15:40:35;9.50;99.90
11840;DHT22;5979;50.800;4.904;2024-02-23T15:43:00;9.50;99.90
11840;DHT22;5979;50.800;4.904;2024-02-23T15:45:26;9.60;99.90
11840;DHT22;5979;50.800;4.904;2024-02-23T15:47:52;9.60;99.90
11840;DHT22;5979;50.800;4.904;2024-02-23T15:50:18;9.70;99.90
11840;DHT22;5979;50.800;4.904;2024-02-23T15:52:45;9.70;99.90
11840;DHT22;5979;50.800;4.904;2024-02-23T15:55:11;9.70;99.90
11840;DHT22;5979;50.800;4.904;2024-02-23T15:57:38;9.70;99.90
11840;DHT22;5979;50.800;4.904;2024-02-23T16:00:05;9.70;99.90
11840;DHT22;5979;50.800;4.904;2024-02-23T16:02:33;9.70;99.90
11840;DHT22;5979;50.800;4.904;2024-02-23T16:05:01;9.70;99.90
11840;DHT22;5979;50.800;4.904;2024-02-23T16:07:27;9.80;99.90
11840;DHT22;5979;50.800;4.904;2024-02-23T16:09:52;9.80;99.90
11840;DHT22;5979;50.800;4.904;2024-02-23T16:12:18;9.90;99.90
11840;DHT22;5979;50.800;4.904;2024-02-23T16:14:44;9.80;99.90
11840;DHT22;5979;50.800;4.904;2024-02-23T16:17:09;9.80;99.90
11840;DHT22;5979;50.800;4.904;2024-02-23T16:19:35;9.60;99.90